createdAt,value
2022-11-01T00:01:56.160Z,11.47
2022-11-01T00:04:24.895Z,10.40
2022-11-01T00:06:54.578Z,10.50
2022-11-01T00:09:23.313Z,9.93
2022-11-01T00:11:51.593Z,11.27
2022-11-01T00:14:21.080Z,10.17
2022-11-01T00:16:49.947Z,10.67
2022-11-01T00:19:18.384Z,10.60
2022-11-01T00:21:46.656Z,10.03
2022-11-01T00:24:16.318Z,10.30
2022-11-01T00:26:44.610Z,9.80
2022-11-01T00:29:13.636Z,10.07
2022-11-01T00:31:42.175Z,9.17
2022-11-01T00:34:10.557Z,9.93
2022-11-01T00:36:38.859Z,9.97
2022-11-01T00:39:07.628Z,9.20
2022-11-01T00:41:37.269Z,8.50
2022-11-01T00:44:05.701Z,10.60
2022-11-01T00:46:34.809Z,9.03
2022-11-01T00:49:03.154Z,8.60
2022-11-01T00:51:31.438Z,8.87
2022-11-01T00:53:59.715Z,8.57
2022-11-01T00:56:27.927Z,9.23
2022-11-01T00:58:57.548Z,7.90
2022-11-01T01:01:26.214Z,8.53
2022-11-01T01:03:54.523Z,8.03
2022-11-01T01:06:22.827Z,9.30
2022-11-01T01:08:51.178Z,8.37
2022-11-01T01:11:19.443Z,8.10
2022-11-01T01:13:47.772Z,8.77
2022-11-01T01:16:17.519Z,7.47
2022-11-01T01:18:46.070Z,7.70
2022-11-01T01:21:15.539Z,7.60
2022-11-01T01:23:44.621Z,6.73
2022-11-01T01:26:12.874Z,7.10
2022-11-01T01:28:43.773Z,7.60
2022-11-01T01:31:14.605Z,7.17
2022-11-01T01:33:44.289Z,6.93
2022-11-01T01:36:12.597Z,6.93
2022-11-01T01:38:40.846Z,6.73
2022-11-01T01:41:26.396Z,6.50
2022-11-01T01:43:54.676Z,6.50
2022-11-01T01:46:23.036Z,6.17
2022-11-01T01:48:57.652Z,6.77
2022-11-01T01:51:29.035Z,6.33
2022-11-01T01:53:59.613Z,5.80
2022-11-01T01:56:32.787Z,5.63
2022-11-01T01:59:04.282Z,6.20
2022-11-01T02:01:33.957Z,6.00
2022-11-01T02:04:04.882Z,5.93
2022-11-01T02:06:34.643Z,6.00
2022-11-01T02:09:05.442Z,6.20
2022-11-01T02:11:33.800Z,5.87
2022-11-01T02:14:02.999Z,6.93
2022-11-01T02:16:48.214Z,6.30
2022-11-01T02:19:52.719Z,6.30
2022-11-01T02:22:33.160Z,6.80
2022-11-01T02:25:11.121Z,6.57
2022-11-01T02:27:59.044Z,6.70
2022-11-01T02:30:37.040Z,6.17
2022-11-01T02:33:16.301Z,6.80
2022-11-01T02:35:55.199Z,6.00
2022-11-01T02:38:28.639Z,6.57
2022-11-01T02:41:04.728Z,6.27
2022-11-01T02:43:42.224Z,6.13
2022-11-01T02:46:28.960Z,6.80
2022-11-01T02:49:00.394Z,6.70
2022-11-01T02:51:31.304Z,6.67
2022-11-01T02:54:02.544Z,6.47
2022-11-01T02:56:31.616Z,7.17
2022-11-01T02:59:00.668Z,6.47
2022-11-01T03:01:33.104Z,6.67
2022-11-01T03:04:03.494Z,6.87
2022-11-01T03:06:36.107Z,6.37
2022-11-01T03:09:07.531Z,6.47
2022-11-01T03:11:43.316Z,6.87
2022-11-01T03:14:24.818Z,6.50
2022-11-01T03:17:00.414Z,6.97
2022-11-01T03:19:40.394Z,7.30
2022-11-01T03:22:12.684Z,6.73
2022-11-01T03:24:51.181Z,7.00
2022-11-01T03:27:27.394Z,6.73
2022-11-01T03:30:01.732Z,6.63
2022-11-01T03:32:35.356Z,6.77
2022-11-01T03:35:06.385Z,7.13
2022-11-01T03:37:35.865Z,7.37
2022-11-01T03:40:07.907Z,7.03
2022-11-01T03:42:38.769Z,7.00
2022-11-01T03:45:10.695Z,7.75
2022-11-01T03:47:39.295Z,7.33
2022-11-01T03:50:16.266Z,7.27
2022-11-01T03:52:44.570Z,7.47
2022-11-01T03:55:21.943Z,7.47
2022-11-01T03:57:51.329Z,6.50
2022-11-01T04:00:22.214Z,7.13
2022-11-01T04:02:50.680Z,7.53
2022-11-01T04:05:23.318Z,8.50
2022-11-01T04:07:52.412Z,6.87
2022-11-01T04:10:21.390Z,7.13
2022-11-01T04:12:50.990Z,7.37
2022-11-01T04:15:38.863Z,7.20
2022-11-01T04:18:30.062Z,7.70
2022-11-01T04:21:02.330Z,8.53
2022-11-01T04:23:30.833Z,6.77
2022-11-01T04:25:59.695Z,7.57
2022-11-01T04:28:28.203Z,7.50
2022-11-01T04:30:56.806Z,8.03
2022-11-01T04:33:25.648Z,7.20
2022-11-01T04:35:53.923Z,8.37
2022-11-01T04:38:23.598Z,8.00
2022-11-01T04:40:51.848Z,7.67
2022-11-01T04:43:22.829Z,7.30
2022-11-01T04:45:55.874Z,8.43
2022-11-01T04:48:24.575Z,7.40
2022-11-01T04:50:53.070Z,8.17
2022-11-01T04:53:21.348Z,7.83
2022-11-01T04:55:51.001Z,7.57
2022-11-01T04:58:19.252Z,8.13
2022-11-01T05:00:47.614Z,8.27
2022-11-01T05:03:16.008Z,8.73
2022-11-01T05:05:44.312Z,8.13
2022-11-01T05:08:14.171Z,8.20
2022-11-01T05:10:44.043Z,8.43
2022-11-01T05:13:14.785Z,8.30
2022-11-01T05:15:59.229Z,8.13
2022-11-01T05:18:31.337Z,9.10
2022-11-01T05:20:59.642Z,8.93
2022-11-01T05:23:27.922Z,9.30
2022-11-01T05:25:56.197Z,9.60
2022-11-01T05:28:25.871Z,8.17
2022-11-01T05:30:54.121Z,8.67
2022-11-01T05:33:22.458Z,9.03
2022-11-01T05:35:50.697Z,8.73
2022-11-01T05:38:18.929Z,8.77
2022-11-01T05:40:47.232Z,8.83
2022-11-01T05:43:15.956Z,9.20
2022-11-01T05:45:45.598Z,8.93
2022-11-01T05:48:13.839Z,8.70
2022-11-01T05:50:42.065Z,9.37
2022-11-01T05:53:10.642Z,8.60
2022-11-01T05:55:39.448Z,8.73
2022-11-01T05:58:07.884Z,7.73
2022-11-01T06:00:36.489Z,6.80
2022-11-01T06:03:07.228Z,7.57
2022-11-01T06:05:36.242Z,7.70
2022-11-01T06:08:05.625Z,7.70
2022-11-01T06:10:34.618Z,8.27
2022-11-01T06:13:03.090Z,7.53
2022-11-01T06:15:34.309Z,8.23
2022-11-01T06:18:07.141Z,9.00
2022-11-01T06:20:36.937Z,8.40
2022-11-01T06:23:10.795Z,7.60
2022-11-01T06:25:39.614Z,7.17
2022-11-01T06:28:08.402Z,7.93
2022-11-01T06:30:39.010Z,8.43
2022-11-01T06:33:09.656Z,7.80
2022-11-01T06:35:38.580Z,8.00
2022-11-01T06:38:08.174Z,7.97
2022-11-01T06:40:39.130Z,7.70
2022-11-01T06:43:07.628Z,8.20
2022-11-01T06:45:36.054Z,8.30
2022-11-01T06:48:04.741Z,8.60
2022-11-01T06:50:35.162Z,8.90
2022-11-01T06:53:03.417Z,8.30
2022-11-01T06:55:32.154Z,8.13
2022-11-01T06:58:02.363Z,7.67
2022-11-01T07:00:32.314Z,8.07
2022-11-01T07:03:02.047Z,7.77
2022-11-01T07:05:34.406Z,8.48
2022-11-01T07:08:08.731Z,7.63
2022-11-01T07:10:38.524Z,7.87
2022-11-01T07:13:08.479Z,8.53
2022-11-01T07:15:36.823Z,8.57
2022-11-01T07:18:08.334Z,8.37
2022-11-01T07:20:42.141Z,7.97
2022-11-01T07:23:13.865Z,8.10
2022-11-01T07:25:42.474Z,8.37
2022-11-01T07:28:11.504Z,8.03
2022-11-01T07:30:40.564Z,8.57
2022-11-01T07:33:09.277Z,7.30
2022-11-01T07:35:37.539Z,8.90
2022-11-01T07:38:09.707Z,8.37
2022-11-01T07:40:43.060Z,7.77
2022-11-01T07:43:11.433Z,8.17
2022-11-01T07:45:39.784Z,7.30
2022-11-01T07:48:10.919Z,7.33
2022-11-01T07:50:40.757Z,7.47
2022-11-01T07:53:11.551Z,7.73
2022-11-01T07:55:41.782Z,7.20
2022-11-01T07:58:11.444Z,7.57
2022-11-01T08:00:41.104Z,8.80
2022-11-01T08:03:10.889Z,7.77
2022-11-01T08:05:39.671Z,8.50
2022-11-01T08:08:08.719Z,7.50
2022-11-01T08:10:38.058Z,7.70
2022-11-01T08:13:14.589Z,8.10
2022-11-01T08:15:42.858Z,8.73
2022-11-01T08:18:11.429Z,7.37
2022-11-01T08:20:40.981Z,7.73
2022-11-01T08:23:09.630Z,8.00
2022-11-01T08:25:37.942Z,8.57
2022-11-01T08:28:10.000Z,8.07
2022-11-01T08:30:39.560Z,8.23
2022-11-01T08:33:07.926Z,8.73
2022-11-01T08:35:36.522Z,7.80
2022-11-01T08:38:05.164Z,7.77
2022-11-01T08:40:36.053Z,8.53
2022-11-01T08:43:04.696Z,8.07
2022-11-01T08:45:34.635Z,8.00
2022-11-01T08:48:05.252Z,7.53
2022-11-01T08:50:34.991Z,8.67
2022-11-01T08:53:06.224Z,7.63
2022-11-01T08:55:37.633Z,6.77
2022-11-01T08:58:07.211Z,6.90
2022-11-01T09:00:37.575Z,6.50
2022-11-01T09:03:06.148Z,7.57
2022-11-01T09:05:34.554Z,7.30
2022-11-01T09:08:03.441Z,7.40
2022-11-01T09:10:32.343Z,6.57
2022-11-01T09:13:02.168Z,7.53
2022-11-01T09:15:31.202Z,7.63
2022-11-01T09:18:05.505Z,6.60
2022-11-01T09:20:33.883Z,5.45
2022-11-01T09:23:02.450Z,5.43
2022-11-01T09:25:30.955Z,5.77
2022-11-01T09:28:01.548Z,5.83
2022-11-01T09:30:33.290Z,5.68
2022-11-01T09:33:05.679Z,5.80
2022-11-01T09:35:34.768Z,5.90
2022-11-01T09:38:04.590Z,6.60
2022-11-01T09:40:40.481Z,6.05
2022-11-01T09:43:10.877Z,5.50
2022-11-01T09:45:39.330Z,6.15
2022-11-01T09:48:09.467Z,6.15
2022-11-01T09:50:40.192Z,6.10
2022-11-01T09:53:14.718Z,6.82
2022-11-01T09:55:49.228Z,5.53
2022-11-01T09:58:26.710Z,6.38
2022-11-01T10:01:06.107Z,5.20
2022-11-01T10:03:53.114Z,5.80
2022-11-01T10:06:25.056Z,5.55
2022-11-01T10:09:02.318Z,5.45
2022-11-01T10:11:56.866Z,5.57
2022-11-01T10:14:49.865Z,5.38
2022-11-01T10:17:24.963Z,5.50
2022-11-01T10:19:55.074Z,4.93
2022-11-01T10:22:31.232Z,6.72
2022-11-01T10:25:02.574Z,6.03
2022-11-01T10:27:38.289Z,5.45
2022-11-01T10:30:09.968Z,5.45
2022-11-01T10:32:42.761Z,5.53
2022-11-01T10:35:18.519Z,5.68
2022-11-01T10:38:11.284Z,5.90
2022-11-01T10:40:47.879Z,5.70
2022-11-01T10:43:19.465Z,5.88
2022-11-01T10:45:50.693Z,5.43
2022-11-01T10:48:27.336Z,5.80
2022-11-01T10:51:01.212Z,6.20
2022-11-01T10:53:31.914Z,5.63
2022-11-01T10:56:05.925Z,5.75
2022-11-01T10:58:40.500Z,5.75
2022-11-01T11:01:14.277Z,5.60
2022-11-01T11:03:45.245Z,5.40
2022-11-01T11:06:16.785Z,5.50
2022-11-01T11:08:51.260Z,5.28
2022-11-01T11:11:27.224Z,6.07
2022-11-01T11:13:57.352Z,4.97
2022-11-01T11:16:33.400Z,5.07
2022-11-01T11:19:19.203Z,5.00
2022-11-01T11:21:52.911Z,5.60
2022-11-01T11:24:23.461Z,5.47
2022-11-01T11:26:54.660Z,4.88
2022-11-01T11:29:38.003Z,5.75
2022-11-01T11:32:13.943Z,5.22
2022-11-01T11:34:43.384Z,5.35
2022-11-01T11:37:21.934Z,5.50
2022-11-01T11:40:17.327Z,4.93
2022-11-01T11:42:46.411Z,5.00
2022-11-01T11:45:29.344Z,5.18
2022-11-01T11:47:58.654Z,5.88
2022-11-01T11:50:34.787Z,5.88
2022-11-01T11:53:08.746Z,5.57
2022-11-01T11:55:42.015Z,5.20
2022-11-01T11:58:24.153Z,4.93
2022-11-01T12:00:59.203Z,5.40
2022-11-01T12:03:28.057Z,5.20
2022-11-01T12:06:00.981Z,5.80
2022-11-01T12:08:49.633Z,5.57
2022-11-01T12:11:18.392Z,5.68
2022-11-01T12:14:00.388Z,5.15
2022-11-01T12:19:03.747Z,5.05
2022-11-01T12:21:36.674Z,5.07
2022-11-01T12:24:16.205Z,5.15
2022-11-01T12:26:45.700Z,4.93
2022-11-01T12:29:26.530Z,5.13
2022-11-01T12:31:56.744Z,5.25
2022-11-01T12:34:27.901Z,5.38
2022-11-01T12:37:00.048Z,5.28
2022-11-01T12:39:44.591Z,5.13
2022-11-01T12:42:21.095Z,4.93
2022-11-01T12:44:52.927Z,4.53
2022-11-01T12:47:29.044Z,4.80
2022-11-01T12:50:01.863Z,5.22
2022-11-01T12:52:37.933Z,4.82
2022-11-01T12:55:19.827Z,4.25
2022-11-01T12:57:52.616Z,4.60
2022-11-01T13:00:21.617Z,4.65
2022-11-01T13:02:59.977Z,4.28
2022-11-01T13:41:00.358Z,4.60
2022-11-01T13:43:36.805Z,4.53
2022-11-01T13:46:34.881Z,5.05
2022-11-01T13:49:30.509Z,4.57
2022-11-01T13:52:03.338Z,4.75
2022-11-01T13:54:36.371Z,4.57
2022-11-01T13:57:14.024Z,4.50
2022-11-01T13:59:54.102Z,5.57
2022-11-01T14:02:57.371Z,4.65
2022-11-01T14:05:38.608Z,4.82
2022-11-01T14:08:15.259Z,4.75
2022-11-01T14:10:49.400Z,4.78
2022-11-01T14:13:20.524Z,5.00
2022-11-01T14:16:22.749Z,4.68
2022-11-01T14:19:20.297Z,4.10
2022-11-01T14:21:54.136Z,4.90
2022-11-01T14:24:34.589Z,4.85
2022-11-01T14:27:24.373Z,4.32
2022-11-01T14:30:05.440Z,4.78
2022-11-01T14:32:34.039Z,4.85
2022-11-01T14:35:15.462Z,5.00
2022-11-01T14:37:48.230Z,4.68
2022-11-01T14:40:28.310Z,5.30
2022-11-01T14:43:01.709Z,5.78
2022-11-01T14:45:38.089Z,5.68
2022-11-01T14:48:16.409Z,6.07
2022-11-01T14:50:52.194Z,6.13
2022-11-01T14:53:26.461Z,5.72
2022-11-01T14:56:07.279Z,5.68
2022-11-01T14:58:35.577Z,6.90
2022-11-01T15:01:10.295Z,6.50
2022-11-01T15:03:38.604Z,5.20
2022-11-01T15:06:17.609Z,6.53
2022-11-01T15:08:46.797Z,5.68
2022-11-01T15:11:15.285Z,5.95
2022-11-01T15:13:46.782Z,6.68
2022-11-01T15:16:21.706Z,6.30
2022-11-01T15:18:52.867Z,6.43
2022-11-01T15:21:27.077Z,6.00
2022-11-01T15:23:59.372Z,5.82
2022-11-01T15:26:31.532Z,7.32
2022-11-01T15:29:02.052Z,6.68
2022-11-01T15:31:34.416Z,6.80
2022-11-01T15:34:04.875Z,7.00
2022-11-01T15:36:35.982Z,7.40
2022-11-01T15:39:16.645Z,7.53
2022-11-01T15:41:45.892Z,6.95
2022-11-01T15:44:21.280Z,6.50
2022-11-01T15:46:52.594Z,7.47
2022-11-01T15:49:24.751Z,6.20
2022-11-01T15:51:57.020Z,7.07
2022-11-01T15:54:35.338Z,7.95
2022-11-01T15:57:10.267Z,8.00
2022-11-01T15:59:49.914Z,8.00
2022-11-01T16:02:26.026Z,7.97
2022-11-01T16:04:54.709Z,7.88
2022-11-01T16:07:24.029Z,8.15
2022-11-01T16:09:54.899Z,8.20
2022-11-01T16:12:27.209Z,8.40
2022-11-01T16:14:58.509Z,9.30
2022-11-01T16:17:34.928Z,8.93
2022-11-01T16:20:05.809Z,9.60
2022-11-01T16:22:45.084Z,9.60
2022-11-01T16:25:21.298Z,10.27
2022-11-01T16:27:54.979Z,12.57
2022-11-01T16:30:46.564Z,11.55
2022-11-01T16:33:22.224Z,12.23
2022-11-01T16:35:52.717Z,12.40
2022-11-01T16:38:30.033Z,12.30
2022-11-01T16:41:01.092Z,11.90
2022-11-01T16:43:32.192Z,13.43
2022-11-01T16:46:00.980Z,13.37
2022-11-01T16:48:32.442Z,14.00
2022-11-01T16:51:02.704Z,14.80
2022-11-01T16:53:31.582Z,13.47
2022-11-01T16:56:34.435Z,14.30
2022-11-01T16:58:59.333Z,14.83
2022-11-01T17:01:35.147Z,13.73
2022-11-01T17:04:06.146Z,13.83
2022-11-01T17:06:39.159Z,13.90
2022-11-01T17:09:13.376Z,13.03
2022-11-01T17:11:46.395Z,13.73
2022-11-01T17:14:16.380Z,14.03
2022-11-01T17:16:47.777Z,14.93
2022-11-01T17:19:23.789Z,13.60
2022-11-01T17:21:53.908Z,13.57
2022-11-01T17:24:24.517Z,13.67
2022-11-01T17:26:54.232Z,13.77
2022-11-01T17:29:22.468Z,15.50
2022-11-01T17:31:50.688Z,13.13
2022-11-01T17:34:20.584Z,14.57
2022-11-01T17:36:50.256Z,13.13
2022-11-01T17:39:18.690Z,13.03
2022-11-01T17:41:46.996Z,13.83
2022-11-01T17:44:15.724Z,14.20
2022-11-01T17:46:44.018Z,13.93
2022-11-01T17:49:15.021Z,16.27
2022-11-01T17:51:44.900Z,14.23
2022-11-01T17:54:13.588Z,14.73
2022-11-01T17:56:41.914Z,15.53
2022-11-01T17:59:10.167Z,15.27
2022-11-01T18:01:39.562Z,15.73
2022-11-01T18:04:08.016Z,15.53
2022-11-01T18:06:36.312Z,15.93
2022-11-01T18:09:18.178Z,16.67
2022-11-01T18:28:35.158Z,21.33
2022-11-01T18:31:12.290Z,21.40
2022-11-01T18:33:48.536Z,20.33
2022-11-01T18:36:21.493Z,21.33
2022-11-01T18:38:56.295Z,20.53
2022-11-01T18:41:24.537Z,20.10
2022-11-01T18:43:54.926Z,20.50
2022-11-01T18:46:27.124Z,19.37
2022-11-01T18:49:00.094Z,21.00
2022-11-01T18:51:31.337Z,20.03
2022-11-01T18:54:12.762Z,19.70
2022-11-01T18:56:42.051Z,21.55
2022-11-01T18:59:24.035Z,20.57
2022-11-01T19:01:55.636Z,19.33
2022-11-01T19:04:26.381Z,21.43
2022-11-01T19:06:57.732Z,19.97
2022-11-01T19:09:28.579Z,19.73
2022-11-01T19:12:01.579Z,19.77
2022-11-01T19:14:35.275Z,19.77
2022-11-01T19:17:04.908Z,20.20
2022-11-01T19:19:34.792Z,19.90
2022-11-01T19:22:04.902Z,20.35
2022-11-01T19:24:37.287Z,19.33
2022-11-01T19:27:19.038Z,19.43
2022-11-01T19:29:53.967Z,18.87
2022-11-01T19:32:26.400Z,18.73
2022-11-01T19:34:55.420Z,20.10
2022-11-01T19:37:33.048Z,17.53
2022-11-01T19:40:14.278Z,17.27
2022-11-01T19:42:42.502Z,17.90
2022-11-01T19:45:29.027Z,18.70
2022-11-01T19:48:01.736Z,20.27
2022-11-01T19:50:39.431Z,17.07
2022-11-01T19:53:20.258Z,18.63
2022-11-01T19:55:59.488Z,19.87
2022-11-01T19:58:37.167Z,18.87
2022-11-01T20:01:41.453Z,18.50
2022-11-01T20:04:26.983Z,19.43
2022-11-01T20:06:59.697Z,20.60
2022-11-01T20:09:30.228Z,19.67
2022-11-01T20:11:58.553Z,21.17
2022-11-01T20:14:27.650Z,18.73
2022-11-01T20:16:57.311Z,19.23
2022-11-01T20:19:25.574Z,18.37
2022-11-01T20:21:53.812Z,17.40
2022-11-01T20:24:22.247Z,17.77
2022-11-01T20:26:50.782Z,18.67
2022-11-01T20:29:19.086Z,18.70
2022-11-01T20:31:47.838Z,17.63
2022-11-01T20:34:17.456Z,19.67
2022-11-01T20:37:02.203Z,17.40
2022-11-01T20:39:34.112Z,17.97
2022-11-01T20:42:02.401Z,18.00
2022-11-01T20:44:30.627Z,16.70
2022-11-01T20:46:58.833Z,18.13
2022-11-01T20:49:28.571Z,17.50
2022-11-01T20:52:03.787Z,17.10
2022-11-01T20:54:42.597Z,16.20
2022-11-01T20:57:19.904Z,16.50
2022-11-01T20:59:56.133Z,15.97
2022-11-01T21:02:25.035Z,15.93
2022-11-01T21:05:00.772Z,17.27
2022-11-01T21:07:30.951Z,16.10
2022-11-01T21:09:59.203Z,16.73
2022-11-01T21:12:43.417Z,15.90
2022-11-01T21:15:35.142Z,16.40
2022-11-01T21:18:31.622Z,17.47
2022-11-01T21:21:12.501Z,16.93
2022-11-01T21:23:41.813Z,16.83
2022-11-01T21:26:17.530Z,16.50
2022-11-01T21:28:48.891Z,17.13
2022-11-01T21:31:26.687Z,17.20
2022-11-01T21:33:56.714Z,18.07
2022-11-01T21:36:35.301Z,18.37
2022-11-01T21:39:05.196Z,16.20
2022-11-01T21:41:35.243Z,17.13
2022-11-01T21:44:21.163Z,16.53
2022-11-01T21:46:51.277Z,17.03
2022-11-01T21:49:25.380Z,18.10
2022-11-01T21:51:56.020Z,17.90
2022-11-01T21:54:24.304Z,17.33
2022-11-01T21:56:52.544Z,18.60
2022-11-01T21:59:26.429Z,19.30
2022-11-01T22:01:55.698Z,18.03
2022-11-01T22:04:28.557Z,19.07
2022-11-01T22:06:59.382Z,18.33
2022-11-01T22:09:27.943Z,18.83
2022-11-01T22:11:56.284Z,19.10
2022-11-01T22:14:25.086Z,19.73
2022-11-01T22:16:53.578Z,21.83
2022-11-01T22:19:22.224Z,18.50
2022-11-01T22:21:50.525Z,20.17
2022-11-01T22:24:20.311Z,21.10
2022-11-01T22:26:48.539Z,19.43
2022-11-01T22:29:16.804Z,19.50
2022-11-01T22:31:45.084Z,20.20
2022-11-01T22:34:13.510Z,21.13
2022-11-01T22:36:43.059Z,20.20
2022-11-01T22:39:18.371Z,21.43
2022-11-01T22:41:48.518Z,20.10
2022-11-01T22:44:19.068Z,18.80
2022-11-01T22:46:55.104Z,19.40
2022-11-01T22:49:27.899Z,20.10
2022-11-01T22:51:58.646Z,19.50
2022-11-01T22:54:35.533Z,17.47
2022-11-01T22:57:15.588Z,19.03
2022-11-01T22:59:47.025Z,18.63
2022-11-01T23:02:27.852Z,19.07
2022-11-01T23:05:02.617Z,18.67
2022-11-01T23:07:35.481Z,19.07
2022-11-01T23:10:08.203Z,18.37
2022-11-01T23:12:55.691Z,17.70
2022-11-01T23:15:30.131Z,18.80
2022-11-01T23:18:04.167Z,17.50
2022-11-01T23:20:32.401Z,19.47
2022-11-01T23:23:01.346Z,18.43
2022-11-01T23:25:30.325Z,18.27
2022-11-01T23:28:00.540Z,18.17
2022-11-01T23:30:28.762Z,18.60
2022-11-01T23:32:58.158Z,19.25
2022-11-01T23:35:26.878Z,18.63
2022-11-01T23:37:58.123Z,17.77
2022-11-01T23:40:30.291Z,19.80
2022-11-01T23:42:59.983Z,18.90
2022-11-01T23:45:32.309Z,20.03
2022-11-01T23:48:02.119Z,20.83
2022-11-01T23:50:32.193Z,20.47
2022-11-01T23:53:03.222Z,22.63
2022-11-01T23:55:34.508Z,23.20
2022-11-01T23:58:06.223Z,21.23
